メインページ
METAR-TAF:

METAR-TAF

空港 :

カルガリー, アルバータ州, カナダ

カルガリー国際空港

緯度: 51-07N, 経度: 114-01W, 海抜: 1077m

現時点の気象観測

当レポートは17分前の23:00(UTC)に作成
変向風 2kt
気温 23°C
湿度 27%
気圧 1017 hPa
視程: 64.4km
高度6500ftの雲は散在している
高度8000ftの雲は散在している, 積乱雲.
高度9500ftの千切れ雲あり
高度25000ftの千切れ雲あり
近辺でにわか雨

METAR: CYYC 272300Z VRB02KT 40SM VCSH SCT065 SCT080CB BKN095 BKN250 23/03 A3004 RMK CU3CB1AC2CI1 CI TR SH DIST NW-N SLP169 DENSITY ALT 5200FT

時間: 17:17 (23:17 UTC)

予報

当レポートは2時間39分前の20:38(UTC)に作成
予報は27日の 21時(UTC)から 28日の 18時(UTC)まで有効
北/北西の風 12kt、最大22ktの突風を伴う
視程: 10km
高度8000ftの雲は散在している
28日の 0600時(UTC)から
北/北西の風 10kt
視程: 10km
高度6000ftの千切れ雲あり
28日の 1200時(UTC)から
北/北西の風 5kt
視程: 10km
高度8000ftの雲は散在している

TAF: CYYC 272038Z 2721/2818 34012G22KT P6SM SCT080 FM280600 34010KT P6SM BKN060 FM281200 34005KT P6SM SCT080 RMK NXT FCST BY 280000Z

4,000以上の空港の気象観測と天気予報(METAR報とTAF報)

利用可能な観測所は地図上に黄色い丸と赤い丸で示す。

丸の上にカーソルを重ねると観測所名を参照できる。

次にクリックすると気象観測と天気予報を参照できる。

マップの切り替え:黒色「×」印の緑ボタンをクリックして拡大、「-」印の緑ボタンをクリックして縮小、緑色の三角印をクリックして隣りの地図に切り替え


METAR-TAF: